Havana, Kuba

10:40 AM CDT on oktober 22, 2018 (GMT -0400)
Jose Marti International | | Change Station

Viš 194 ft 22.98 °N, 82.40 °W | Updated 45 minutes ago

Delno oblacno
Delno oblacno
81 °F
Feels Like 86 °F
N
7
Veter Spremenljivo Veter od Vzhod

Danes
High -- | Low -- °F
--% Chance of Precip.
Yesterday
High -- | Low -- °F
Precip. -- v
Zračni tlak 30.06 v
Vidljivost 5.6 milje
Oblaki Few 3000 ft
Toplotni indeks 86 °F
Rosišče 75 °F
Vlažnost 84%
Padavine 0.00 v
Snow Depth Not available.
7:29 AM 6:58 PM
Naraščajoča luna, 95% visible
METAR MUHA 221355Z 08006KT 040V110 9000 FEW030 27/24 Q1018
Zračni tlak 30.06 v
Vidljivost 5.6 milje
Oblaki Few 3000 ft
Toplotni indeks 86 °F
Rosišče 75 °F
Vlažnost 84%
Padavine 0.00 v
Snow Depth Not available.
7:29 AM 6:58 PM
Naraščajoča luna, 95% visible
METAR MUHA 221355Z 08006KT 040V110 9000 FEW030 27/24 Q1018

Get Severe Weather Alerts

Thanks for signing up!

Be on the lookout for a verification email in your inbox.

You'll start receiving the daily forecast at 6 AM.

×

10-Day Weather Forecast

No radar image for this location.
×

Almanac

Astronomija

Oct. 22, 2018 Rise Set
Actual Time
Civil Twilight
Nautical Twilight
Astronomical Twilight
Moon
Length Of Visible Light
Dolžina dneva
Tomorrow will be .
, % of the Moon is Illuminated

Današnji ekstremi

Country Highs Country Lows

Community

WunderPhotos

Category 6

Welcome to Category 6. This is the collective home for Weather Underground's featured writeups by Dr. Jeff Masters (right), Bob Henson (left), Chris Burt, and other regular contributors.

Nearby

Air Quality

  Air Quality AQ Index Pollutant
Not available.

Snow Depth

Station Depth Višina

Earthquake Activity

City Distance Mag. Time & Date
Minimum magnitude displayed is 2.5.

Coastal Water Temperatures

Mesto Temperatura

Stations

Nearby Weather Stations

Station Location Temp Občutek zaradi vetra Rosišče Vlažnost Veter Precip. Viš Obnovljeno Type